createdAt,value
2023-01-26T00:00:07.211Z,100776.22
2023-01-26T00:01:39.118Z,100781.44
2023-01-26T00:03:10.970Z,100769.47
2023-01-26T00:04:42.853Z,100767.75
2023-01-26T00:06:15.483Z,100763.47
2023-01-26T00:07:47.463Z,100763.47
2023-01-26T00:09:19.313Z,100756.66
2023-01-26T00:10:51.550Z,100759.22
2023-01-26T00:12:23.400Z,100753.25
2023-01-26T00:13:55.872Z,100748.91
2023-01-26T00:15:27.690Z,100750.59
2023-01-26T00:16:59.493Z,100757.38
2023-01-26T00:18:31.609Z,100750.63
2023-01-26T00:20:03.709Z,100747.28
2023-01-26T00:21:35.628Z,100752.38
2023-01-26T00:23:07.758Z,100743.91
2023-01-26T00:24:39.525Z,100749.91
2023-01-26T00:26:13.905Z,100746.50
2023-01-26T00:27:45.794Z,100747.34
2023-01-26T00:29:17.590Z,100748.19
2023-01-26T00:30:49.484Z,100750.75
2023-01-26T00:32:21.377Z,100749.91
2023-01-26T00:33:54.110Z,100747.38
2023-01-26T00:35:26.071Z,100752.59
2023-01-26T00:36:57.900Z,100753.38
2023-01-26T00:38:29.663Z,100755.16
2023-01-26T00:40:01.510Z,100744.88
2023-01-26T00:41:51.857Z,100752.59
2023-01-26T00:43:26.300Z,100748.13
2023-01-26T00:44:58.080Z,100749.72
2023-01-26T00:46:29.972Z,100751.34
2023-01-26T00:48:01.959Z,100747.13
2023-01-26T00:49:33.837Z,100745.44
2023-01-26T00:51:05.829Z,100751.41
2023-01-26T00:52:37.761Z,100752.31
2023-01-26T00:54:09.879Z,100749.78
2023-01-26T00:55:41.728Z,100749.78
2023-01-26T00:57:13.546Z,100747.16
2023-01-26T00:58:46.035Z,100744.78
2023-01-26T01:00:17.941Z,100744.78
2023-01-26T01:01:49.976Z,100741.41
2023-01-26T01:03:21.849Z,100740.53
2023-01-26T01:04:53.607Z,100745.72
2023-01-26T01:06:25.468Z,100745.66
2023-01-26T01:07:57.451Z,100744.78
2023-01-26T01:09:29.378Z,100739.69
2023-01-26T01:11:08.187Z,100740.59
2023-01-26T01:12:40.073Z,100748.34
2023-01-26T01:14:13.097Z,100732.09
2023-01-26T01:15:44.959Z,100734.72
2023-01-26T01:17:16.820Z,100732.16
2023-01-26T01:18:48.825Z,100722.75
2023-01-26T01:20:20.967Z,100726.13
2023-01-26T01:21:52.868Z,100717.66
2023-01-26T01:23:24.791Z,100712.53
2023-01-26T01:24:56.570Z,100707.41
2023-01-26T01:26:28.465Z,100701.41
2023-01-26T01:28:00.300Z,100703.94
2023-01-26T01:29:32.131Z,100695.16
2023-01-26T01:31:05.096Z,100690.00
2023-01-26T01:32:37.119Z,100689.16
2023-01-26T01:34:08.970Z,100682.41
2023-01-26T01:35:40.829Z,100679.03
2023-01-26T01:37:12.736Z,100667.91
2023-01-26T01:38:44.886Z,100666.25
2023-01-26T01:40:16.780Z,100663.66
2023-01-26T01:41:48.632Z,100661.06
2023-01-26T01:43:20.582Z,100673.84
2023-01-26T01:45:10.873Z,100661.06
2023-01-26T01:46:53.244Z,100665.34
2023-01-26T01:48:27.645Z,100670.50
2023-01-26T01:49:59.520Z,100674.56
2023-01-26T01:51:31.408Z,100664.34
2023-01-26T01:53:03.335Z,100664.38
2023-01-26T01:54:42.713Z,100673.72
2023-01-26T01:56:19.338Z,100679.75
2023-01-26T01:57:52.780Z,100683.13
2023-01-26T01:59:24.811Z,100672.91
2023-01-26T02:00:56.822Z,100680.72
2023-01-26T02:02:28.659Z,100682.63
2023-01-26T02:04:01.676Z,100681.88
2023-01-26T02:05:34.339Z,100684.59
2023-01-26T02:07:06.208Z,100692.31
2023-01-26T02:10:20.402Z,100684.66
2023-01-26T02:11:52.429Z,100679.47
2023-01-26T02:13:26.754Z,100675.16
2023-01-26T02:14:58.646Z,100666.59
2023-01-26T02:16:30.588Z,100672.41
2023-01-26T02:18:03.630Z,100673.97
2023-01-26T02:19:45.876Z,100672.03
2023-01-26T02:21:18.756Z,100673.84
2023-01-26T02:22:58.973Z,100672.13
2023-01-26T02:24:31.818Z,100665.19
2023-01-26T02:26:05.041Z,100655.78
2023-01-26T02:27:36.927Z,100654.16
2023-01-26T02:29:09.537Z,100658.47
2023-01-26T02:30:41.400Z,100650.81
2023-01-26T02:32:13.286Z,100653.44
2023-01-26T02:33:45.322Z,100652.56
2023-01-26T02:35:17.218Z,100646.63
2023-01-26T02:36:56.858Z,100646.66
2023-01-26T02:38:34.515Z,100651.81
2023-01-26T02:40:08.483Z,100655.25
2023-01-26T02:41:59.049Z,100641.69
2023-01-26T02:43:30.910Z,100651.97
2023-01-26T02:45:02.809Z,100654.53
2023-01-26T02:46:34.678Z,100655.47
2023-01-26T02:48:08.306Z,100652.19
2023-01-26T02:49:50.864Z,100647.13
2023-01-26T02:51:23.103Z,100640.31
2023-01-26T02:52:54.891Z,100632.66
2023-01-26T02:54:45.315Z,100641.19
2023-01-26T02:56:17.218Z,100628.41
2023-01-26T02:58:07.927Z,100619.81
2023-01-26T02:59:39.762Z,100617.88
2023-01-26T03:01:11.663Z,100611.84
2023-01-26T03:02:43.796Z,100601.59
2023-01-26T03:04:15.672Z,100601.59
2023-01-26T03:05:47.559Z,100605.00
2023-01-26T03:07:19.493Z,100603.16
2023-01-26T03:08:51.463Z,100604.03
2023-01-26T03:10:27.317Z,100597.19
2023-01-26T03:11:59.194Z,100599.56
2023-01-26T03:13:31.096Z,100600.53
2023-01-26T03:15:21.618Z,100592.09
2023-01-26T03:16:53.561Z,100589.59
2023-01-26T03:18:43.985Z,100592.19
2023-01-26T03:20:34.838Z,100585.44
2023-01-26T03:22:25.738Z,100585.44
2023-01-26T03:24:16.207Z,100582.16
2023-01-26T03:26:06.915Z,100583.78
2023-01-26T03:27:40.710Z,100573.59
2023-01-26T03:29:12.653Z,100576.13
2023-01-26T03:30:44.545Z,100572.66
2023-01-26T03:32:16.436Z,100564.25
2023-01-26T03:33:48.271Z,100572.84
2023-01-26T03:35:23.157Z,100570.31
2023-01-26T03:36:54.987Z,100575.47
2023-01-26T03:38:26.969Z,100576.31
2023-01-26T03:40:17.206Z,100578.06
2023-01-26T03:42:09.904Z,100575.56
2023-01-26T03:44:00.212Z,100562.75
2023-01-26T03:45:50.527Z,100564.44
2023-01-26T03:47:40.595Z,100564.47
2023-01-26T03:49:31.272Z,100570.50
2023-01-26T03:51:21.807Z,100558.59
2023-01-26T03:53:12.243Z,100551.69
2023-01-26T03:55:02.880Z,100540.56
2023-01-26T03:56:34.811Z,100543.19
2023-01-26T03:58:07.595Z,100544.97
2023-01-26T03:59:39.523Z,100542.50
2023-01-26T04:01:18.961Z,100538.22
2023-01-26T04:03:09.128Z,100534.84
2023-01-26T04:04:59.231Z,100535.66
2023-01-26T04:06:49.362Z,100540.75
2023-01-26T04:08:23.004Z,100533.09
2023-01-26T04:09:54.852Z,100530.59
2023-01-26T04:11:26.607Z,100524.53
2023-01-26T04:13:17.113Z,100533.88
2023-01-26T04:15:07.252Z,100531.25
2023-01-26T04:16:57.353Z,100529.63
2023-01-26T04:18:47.457Z,100527.78
2023-01-26T04:20:37.788Z,100523.53
2023-01-26T04:22:09.669Z,100512.47
2023-01-26T04:23:41.501Z,100516.69
2023-01-26T04:25:14.546Z,100513.09
2023-01-26T04:26:47.561Z,100511.56
2023-01-26T04:28:19.424Z,100506.31
2023-01-26T04:29:51.307Z,100507.22
2023-01-26T04:31:23.385Z,100508.09
2023-01-26T04:32:55.344Z,100519.16
2023-01-26T04:34:27.209Z,100515.72
2023-01-26T04:36:03.033Z,100513.97
2023-01-26T04:37:35.037Z,100512.38
2023-01-26T04:39:06.986Z,100516.75
2023-01-26T04:40:38.903Z,100513.34
2023-01-26T04:42:10.740Z,100515.97
2023-01-26T04:43:42.540Z,100510.00
2023-01-26T04:45:14.440Z,100511.75
2023-01-26T04:46:48.474Z,100514.31
2023-01-26T04:48:20.252Z,100516.94
2023-01-26T04:49:52.096Z,100505.84
2023-01-26T04:51:24.048Z,100507.56
2023-01-26T04:52:56.393Z,100507.63
2023-01-26T04:54:28.292Z,100502.50
2023-01-26T04:56:02.658Z,100501.69
2023-01-26T04:57:34.681Z,100501.59
2023-01-26T04:59:07.197Z,100497.34
2023-01-26T05:00:39.126Z,100491.34
2023-01-26T05:02:10.994Z,100483.63
2023-01-26T05:03:42.887Z,100488.72
2023-01-26T05:05:14.754Z,100482.88
2023-01-26T05:06:46.809Z,100478.63
2023-01-26T05:08:19.372Z,100476.06
2023-01-26T05:09:51.295Z,100473.56
2023-01-26T05:11:23.220Z,100479.59
2023-01-26T05:12:55.091Z,100478.75
2023-01-26T05:14:26.987Z,100478.75
2023-01-26T05:15:58.825Z,100472.00
2023-01-26T05:17:30.770Z,100473.75
2023-01-26T05:19:02.666Z,100480.66
2023-01-26T05:20:34.500Z,100487.50
2023-01-26T05:22:06.331Z,100475.56
2023-01-26T05:23:38.207Z,100475.56
2023-01-26T05:25:10.584Z,100474.66
2023-01-26T05:26:42.434Z,100479.81
2023-01-26T05:28:14.425Z,100478.91
2023-01-26T05:29:46.259Z,100475.50
2023-01-26T05:31:18.259Z,100474.56
2023-01-26T05:32:50.143Z,100472.00
2023-01-26T05:34:22.032Z,100478.00
2023-01-26T05:35:53.982Z,100482.31
2023-01-26T05:37:26.276Z,100486.50
2023-01-26T05:38:58.138Z,100483.06
2023-01-26T05:40:30.025Z,100486.53
2023-01-26T05:42:01.895Z,100486.50
2023-01-26T05:43:33.772Z,100487.31
2023-01-26T05:45:05.921Z,100489.94
2023-01-26T05:48:17.812Z,100483.13
2023-01-26T05:49:49.755Z,100487.41
2023-01-26T05:51:21.583Z,100489.13
2023-01-26T05:52:53.404Z,100481.47
2023-01-26T05:54:25.303Z,100477.22
2023-01-26T05:55:57.173Z,100481.34
2023-01-26T05:57:28.978Z,100471.13
2023-01-26T05:59:00.993Z,100477.16
2023-01-26T06:00:32.836Z,100474.59
2023-01-26T06:02:04.906Z,100473.47
2023-01-26T06:03:36.727Z,100471.72
2023-01-26T06:05:08.815Z,100472.63
2023-01-26T06:06:40.625Z,100473.47
2023-01-26T06:08:12.417Z,100466.66
2023-01-26T06:09:45.514Z,100469.22
2023-01-26T06:11:17.318Z,100471.66
2023-01-26T06:12:49.180Z,100463.19
2023-01-26T06:14:21.016Z,100465.69
2023-01-26T06:15:53.481Z,100459.63
2023-01-26T06:17:25.357Z,100456.22
2023-01-26T06:18:57.275Z,100457.06
2023-01-26T06:20:29.186Z,100456.28
2023-01-26T06:22:01.153Z,100463.09
2023-01-26T06:23:33.037Z,100459.69
2023-01-26T06:25:05.065Z,100463.88
2023-01-26T06:26:37.138Z,100462.97
2023-01-26T06:28:09.041Z,100460.34
2023-01-26T06:29:41.968Z,100451.84
2023-01-26T06:31:14.462Z,100458.72
2023-01-26T06:32:47.643Z,100449.34
2023-01-26T06:34:20.243Z,100451.06
2023-01-26T06:35:52.677Z,100454.41
2023-01-26T06:37:24.502Z,100445.88
2023-01-26T06:38:57.179Z,100446.69
2023-01-26T06:40:29.577Z,100443.88
2023-01-26T06:42:01.469Z,100442.25
2023-01-26T06:43:34.146Z,100446.63
2023-01-26T06:45:06.332Z,100444.13
2023-01-26T06:46:39.331Z,100436.47
2023-01-26T06:48:11.251Z,100436.47
2023-01-26T06:49:43.177Z,100437.38
2023-01-26T06:51:21.102Z,100430.56
2023-01-26T06:52:55.583Z,100435.69
2023-01-26T06:54:27.516Z,100430.63
2023-01-26T06:55:59.524Z,100433.94
2023-01-26T06:57:31.370Z,100433.94
2023-01-26T06:59:03.253Z,100434.75
2023-01-26T07:00:35.353Z,100430.53
2023-01-26T07:02:07.455Z,100435.56
2023-01-26T07:03:39.335Z,100434.75
2023-01-26T07:05:12.831Z,100433.94
2023-01-26T07:06:47.194Z,100431.44
2023-01-26T07:08:19.339Z,100431.53
2023-01-26T07:09:51.255Z,100426.28
2023-01-26T07:11:24.376Z,100424.56
2023-01-26T07:12:56.169Z,100422.00
2023-01-26T07:14:28.081Z,100433.84
2023-01-26T07:16:06.993Z,100426.19
2023-01-26T07:17:39.301Z,100417.69
2023-01-26T07:19:11.201Z,100422.78
2023-01-26T07:22:22.847Z,100411.53
2023-01-26T07:23:55.465Z,100409.06
2023-01-26T07:25:27.509Z,100416.78
2023-01-26T07:26:59.368Z,100411.75
2023-01-26T07:28:31.338Z,100408.41
2023-01-26T07:30:03.193Z,100409.25
2023-01-26T07:31:35.109Z,100411.78
2023-01-26T07:33:07.168Z,100411.63
2023-01-26T07:34:39.091Z,100417.63
2023-01-26T07:36:11.406Z,100405.84
2023-01-26T07:37:43.295Z,100410.97
2023-01-26T07:39:15.193Z,100408.50
2023-01-26T07:40:47.335Z,100410.22
2023-01-26T07:42:19.260Z,100410.28
2023-01-26T07:43:52.236Z,100408.66
2023-01-26T07:45:24.097Z,100405.34
2023-01-26T07:46:56.076Z,100408.75
2023-01-26T07:48:30.216Z,100401.06
2023-01-26T07:50:02.077Z,100399.31
2023-01-26T07:51:34.221Z,100409.53
2023-01-26T07:53:06.089Z,100408.66
2023-01-26T07:54:38.712Z,100404.47
2023-01-26T07:56:12.204Z,100406.25
2023-01-26T07:57:44.098Z,100412.03
2023-01-26T07:59:15.979Z,100409.47
2023-01-26T08:00:47.841Z,100406.16
2023-01-26T08:02:19.721Z,100402.78
2023-01-26T08:03:52.146Z,100399.31
2023-01-26T08:05:24.010Z,100407.03
2023-01-26T08:06:56.032Z,100402.00
2023-01-26T08:08:28.604Z,100399.47
2023-01-26T08:10:00.568Z,100402.88
2023-01-26T08:11:32.510Z,100392.41
2023-01-26T08:13:04.344Z,100391.66
2023-01-26T08:14:46.351Z,100383.09
2023-01-26T08:16:18.997Z,100385.59
2023-01-26T08:17:53.509Z,100388.94
2023-01-26T08:19:26.396Z,100378.03
2023-01-26T08:20:58.518Z,100383.16
2023-01-26T08:22:30.432Z,100378.03
2023-01-26T08:24:12.068Z,100379.00
2023-01-26T08:25:44.018Z,100378.94
2023-01-26T08:27:16.576Z,100372.09
2023-01-26T08:28:48.618Z,100376.97
2023-01-26T08:30:20.651Z,100376.06
2023-01-26T08:31:55.130Z,100378.63
2023-01-26T08:33:27.034Z,100375.44
2023-01-26T08:34:59.024Z,100380.66
2023-01-26T08:36:33.682Z,100356.50
2023-01-26T08:38:06.305Z,100385.88
2023-01-26T08:39:38.204Z,100376.47
2023-01-26T08:41:10.250Z,100372.19
2023-01-26T08:42:42.403Z,100373.09
2023-01-26T08:44:14.282Z,100375.66
2023-01-26T08:45:47.393Z,100368.91
2023-01-26T08:47:19.317Z,100363.81
2023-01-26T08:48:51.216Z,100365.50
2023-01-26T08:50:23.149Z,100360.41
2023-01-26T08:51:55.071Z,100355.34
2023-01-26T08:53:27.542Z,100368.06
2023-01-26T08:55:00.996Z,100362.94
2023-01-26T08:56:32.864Z,100357.97
2023-01-26T08:58:07.829Z,100349.50
2023-01-26T08:59:39.761Z,100359.75
2023-01-26T09:01:13.044Z,100356.41
2023-01-26T09:02:45.114Z,100359.00
2023-01-26T09:04:17.255Z,100341.13
2023-01-26T09:05:49.201Z,100333.47
2023-01-26T09:07:21.092Z,100337.69
2023-01-26T09:08:53.109Z,100327.41
2023-01-26T09:10:25.268Z,100322.25
2023-01-26T09:11:57.241Z,100333.47
2023-01-26T09:13:29.097Z,100324.22
2023-01-26T09:15:00.865Z,100320.88
2023-01-26T09:16:32.767Z,100328.56
2023-01-26T09:18:04.911Z,100331.22
2023-01-26T09:19:36.787Z,100326.13
2023-01-26T09:21:09.021Z,100329.47
2023-01-26T09:22:41.044Z,100331.13
2023-01-26T09:24:12.960Z,100325.13
2023-01-26T09:25:44.827Z,100319.16
2023-01-26T09:27:16.750Z,100318.31
2023-01-26T09:28:52.443Z,100313.22
2023-01-26T09:30:27.151Z,100305.59
2023-01-26T09:31:59.109Z,100304.75
2023-01-26T09:33:31.054Z,100303.94
2023-01-26T09:35:03.182Z,100310.66
2023-01-26T09:36:35.009Z,100302.97
2023-01-26T09:38:06.825Z,100314.00
2023-01-26T09:39:38.742Z,100307.19
2023-01-26T09:41:10.716Z,100303.03
2023-01-26T09:42:44.593Z,100305.69
2023-01-26T09:44:19.314Z,100304.94
2023-01-26T09:45:54.220Z,100300.69
2023-01-26T09:47:37.864Z,100298.19
2023-01-26T09:49:28.357Z,100292.22
2023-01-26T09:51:15.088Z,100299.94
2023-01-26T09:52:57.578Z,100301.53
2023-01-26T09:54:34.991Z,100300.63
2023-01-26T09:56:07.104Z,100292.94
2023-01-26T09:57:44.487Z,100297.19
2023-01-26T09:59:19.295Z,100293.72
2023-01-26T10:00:52.657Z,100293.81
2023-01-26T10:02:40.856Z,100292.97
2023-01-26T10:04:24.891Z,100282.81
2023-01-26T10:06:15.000Z,100281.16
2023-01-26T10:07:46.890Z,100275.19
2023-01-26T10:09:23.286Z,100274.38
2023-01-26T10:10:56.972Z,100268.47
2023-01-26T10:12:32.219Z,100272.75
2023-01-26T10:14:18.749Z,100270.28
2023-01-26T10:16:10.968Z,100273.72
2023-01-26T10:17:43.641Z,100269.53
2023-01-26T10:19:22.244Z,100267.78
2023-01-26T10:20:55.074Z,100263.47
2023-01-26T10:22:37.735Z,100255.75
2023-01-26T10:24:10.340Z,100250.59
2023-01-26T10:25:42.666Z,100248.03
2023-01-26T10:27:15.153Z,100242.94
2023-01-26T10:30:27.008Z,100237.88
2023-01-26T10:31:58.981Z,100232.72
2023-01-26T10:33:33.089Z,100234.38
2023-01-26T10:35:05.250Z,100232.63
2023-01-26T10:36:37.133Z,100240.34
2023-01-26T10:38:44.620Z,100236.03
2023-01-26T10:40:17.745Z,100234.22
2023-01-26T10:41:59.403Z,100228.25
2023-01-26T10:43:35.652Z,100229.97
2023-01-26T10:45:24.125Z,100229.97
2023-01-26T10:47:06.426Z,100221.41
2023-01-26T10:48:38.331Z,100225.66
2023-01-26T10:50:19.803Z,100214.50
2023-01-26T10:52:07.956Z,100206.91
2023-01-26T10:53:39.786Z,100215.44
2023-01-26T10:55:12.980Z,100212.09
2023-01-26T10:56:45.980Z,100197.53
2023-01-26T10:58:38.153Z,100193.31
2023-01-26T11:00:20.706Z,100200.94
2023-01-26T11:01:53.521Z,100196.63
2023-01-26T11:05:07.271Z,100196.53
2023-01-26T11:06:39.346Z,100192.28
2023-01-26T11:08:29.580Z,100182.06
2023-01-26T11:10:20.154Z,100179.41
2023-01-26T11:11:56.451Z,100181.06
2023-01-26T11:13:28.425Z,100163.97
2023-01-26T11:15:04.986Z,100160.56
2023-01-26T11:16:37.152Z,100158.84
2023-01-26T11:18:13.970Z,100155.34
2023-01-26T11:19:45.917Z,100150.25
2023-01-26T11:21:21.305Z,100152.81
2023-01-26T11:22:59.280Z,100148.59
2023-01-26T11:24:45.442Z,100148.59
2023-01-26T11:26:23.589Z,100142.69
2023-01-26T11:28:00.611Z,100138.38
2023-01-26T11:29:51.230Z,100131.56
2023-01-26T11:31:30.805Z,100132.50
2023-01-26T11:33:13.740Z,100136.72
2023-01-26T11:34:55.811Z,100131.63
2023-01-26T11:36:30.751Z,100129.06
2023-01-26T11:39:37.531Z,100122.22
2023-01-26T11:41:11.907Z,100118.81
2023-01-26T11:42:59.076Z,100118.84
2023-01-26T11:44:49.707Z,100109.53
2023-01-26T11:46:43.168Z,100102.78
2023-01-26T11:48:53.611Z,100103.72
2023-01-26T11:50:40.684Z,100091.75
2023-01-26T11:52:17.462Z,100104.59
2023-01-26T11:54:07.669Z,100106.34
2023-01-26T11:55:55.145Z,100094.34
2023-01-26T11:57:28.426Z,100092.47
2023-01-26T11:59:19.300Z,100086.50
2023-01-26T12:00:52.736Z,100080.59
2023-01-26T12:02:27.871Z,100078.97
2023-01-26T12:04:00.034Z,100082.34
2023-01-26T12:05:35.504Z,100078.94
2023-01-26T12:08:52.356Z,100084.13
2023-01-26T12:10:31.084Z,100074.91
2023-01-26T12:12:21.442Z,100073.88
2023-01-26T12:13:56.863Z,100070.56
2023-01-26T12:15:32.384Z,100070.38
2023-01-26T12:17:25.288Z,100063.66
2023-01-26T12:19:10.644Z,100072.31
2023-01-26T12:20:46.892Z,100063.72
2023-01-26T12:22:20.543Z,100062.16
2023-01-26T12:23:52.455Z,100067.41
2023-01-26T12:25:35.442Z,100061.53
2023-01-26T12:27:10.155Z,100058.13
2023-01-26T12:28:47.370Z,100061.63
2023-01-26T12:30:19.321Z,100071.03
2023-01-26T12:31:58.934Z,100071.63
2023-01-26T12:33:33.749Z,100062.06
2023-01-26T12:35:05.838Z,100058.50
2023-01-26T12:36:43.529Z,100054.34
2023-01-26T12:38:20.404Z,100059.56
2023-01-26T12:39:55.389Z,100068.19
2023-01-26T12:41:39.170Z,100064.00
2023-01-26T12:43:20.940Z,100058.09
2023-01-26T12:44:52.754Z,100057.19
2023-01-26T12:46:24.852Z,100059.91
2023-01-26T12:47:57.600Z,100059.88
2023-01-26T12:49:33.016Z,100053.97
2023-01-26T12:51:06.045Z,100053.13
2023-01-26T12:54:30.307Z,100050.38
2023-01-26T12:56:16.472Z,100043.56
2023-01-26T12:57:52.980Z,100043.69
2023-01-26T12:59:47.321Z,100049.66
2023-01-26T13:01:21.336Z,100042.84
2023-01-26T13:02:54.489Z,100032.72
2023-01-26T13:04:26.373Z,100038.72
2023-01-26T13:05:59.622Z,100031.94
2023-01-26T13:07:58.279Z,100026.88
2023-01-26T13:09:30.501Z,100021.84
2023-01-26T13:11:04.953Z,100020.97
2023-01-26T13:12:51.857Z,100025.28
2023-01-26T13:14:42.147Z,100030.38
2023-01-26T13:16:16.734Z,100026.97
2023-01-26T13:17:50.348Z,100029.53
2023-01-26T13:19:35.516Z,100030.38
2023-01-26T13:21:07.444Z,100027.84
2023-01-26T13:24:19.075Z,100016.63
2023-01-26T13:26:10.174Z,100006.44
2023-01-26T13:28:08.061Z,100009.84
2023-01-26T13:29:52.969Z,99997.91
2023-01-26T13:31:32.564Z,99998.69
2023-01-26T13:33:16.349Z,99997.88
2023-01-26T13:34:49.395Z,100002.94
2023-01-26T13:36:21.272Z,99997.75
2023-01-26T13:37:53.164Z,99999.34
2023-01-26T13:39:28.474Z,99994.28
2023-01-26T13:41:00.847Z,100005.41
2023-01-26T13:42:39.214Z,100004.59
2023-01-26T13:44:13.736Z,100000.44
2023-01-26T13:45:56.284Z,99995.16
2023-01-26T13:47:28.985Z,99990.91
2023-01-26T13:49:01.983Z,99988.38
2023-01-26T13:50:34.964Z,99987.50
2023-01-26T13:52:19.926Z,99988.31
2023-01-26T13:54:01.739Z,99990.78
2023-01-26T13:55:33.777Z,99982.22
2023-01-26T13:58:48.213Z,99990.75
2023-01-26T14:00:20.343Z,99978.78
2023-01-26T14:01:53.260Z,99980.50
2023-01-26T14:03:25.171Z,99974.56
2023-01-26T14:04:58.459Z,99978.88
2023-01-26T14:06:30.321Z,99972.88
2023-01-26T14:08:02.252Z,99970.25
2023-01-26T14:09:35.172Z,99967.69
2023-01-26T14:11:15.354Z,99967.69
2023-01-26T14:12:47.962Z,99965.13
2023-01-26T14:14:29.405Z,99969.47
2023-01-26T14:16:01.705Z,99967.84
2023-01-26T14:17:34.910Z,99956.84
2023-01-26T14:19:09.769Z,99962.00
2023-01-26T14:20:41.795Z,99954.44
2023-01-26T14:22:14.236Z,99951.06
2023-01-26T14:23:46.196Z,99957.06
2023-01-26T14:25:20.372Z,99954.50
2023-01-26T14:26:52.254Z,99949.34
2023-01-26T14:28:25.308Z,99945.00
2023-01-26T14:29:57.285Z,99950.13
2023-01-26T14:31:29.677Z,99948.44
2023-01-26T14:33:05.408Z,99945.03
2023-01-26T14:34:37.269Z,99945.00
2023-01-26T14:36:19.273Z,99943.31
2023-01-26T14:37:51.261Z,99940.56
2023-01-26T14:39:23.113Z,99947.38
2023-01-26T14:40:59.026Z,99940.47
2023-01-26T14:42:30.914Z,99937.16
2023-01-26T14:44:05.401Z,99933.72
2023-01-26T14:45:37.235Z,99935.38
2023-01-26T14:47:22.126Z,99938.84
2023-01-26T14:49:10.271Z,99938.84
2023-01-26T14:50:42.172Z,99929.50
2023-01-26T14:52:34.298Z,99926.09
2023-01-26T14:54:19.556Z,99925.22
2023-01-26T14:55:51.635Z,99916.38
2023-01-26T14:57:26.991Z,99921.50
2023-01-26T14:58:58.933Z,99918.09
2023-01-26T15:00:34.599Z,99915.53
2023-01-26T15:02:14.695Z,99912.13
2023-01-26T15:03:46.535Z,99909.47
2023-01-26T15:05:19.244Z,99907.84
2023-01-26T15:06:51.150Z,99913.81
2023-01-26T15:08:24.052Z,99914.66
2023-01-26T15:09:56.012Z,99921.50
2023-01-26T15:11:47.497Z,99912.09
2023-01-26T15:13:20.955Z,99911.28
2023-01-26T15:14:59.482Z,99916.38
2023-01-26T15:16:31.394Z,99912.16
2023-01-26T15:18:04.403Z,99906.22
2023-01-26T15:19:43.316Z,99902.84
2023-01-26T15:21:18.329Z,99903.69
2023-01-26T15:22:51.250Z,99917.38
2023-01-26T15:24:23.541Z,99902.91
2023-01-26T15:25:55.518Z,99905.50
2023-01-26T15:27:34.004Z,99897.84
2023-01-26T15:29:06.441Z,99897.00
2023-01-26T15:30:38.854Z,99899.50
2023-01-26T15:32:26.401Z,99901.28
2023-01-26T15:34:04.236Z,99908.09
2023-01-26T15:35:36.299Z,99901.28
2023-01-26T15:37:26.639Z,99909.84
2023-01-26T15:39:02.709Z,99906.50
2023-01-26T15:40:39.077Z,99897.19
2023-01-26T15:42:13.478Z,99902.28
2023-01-26T15:43:45.336Z,99892.91
2023-01-26T15:45:22.213Z,99893.63
2023-01-26T15:46:56.766Z,99887.75
2023-01-26T15:48:32.014Z,99886.88
2023-01-26T15:50:04.083Z,99880.97
2023-01-26T15:51:36.468Z,99878.41
2023-01-26T15:53:11.917Z,99877.53
2023-01-26T15:54:44.027Z,99879.25
2023-01-26T15:56:16.651Z,99872.34
2023-01-26T15:57:48.699Z,99869.81
2023-01-26T15:59:20.600Z,99873.22
2023-01-26T16:00:55.473Z,99869.88
2023-01-26T16:02:28.329Z,99864.75
2023-01-26T16:04:00.345Z,99870.75
2023-01-26T16:05:32.272Z,99863.13
2023-01-26T16:07:06.075Z,99864.03
2023-01-26T16:08:37.978Z,99863.22
2023-01-26T16:10:10.091Z,99872.66
2023-01-26T16:11:44.955Z,99871.81
2023-01-26T16:13:20.598Z,99872.69
2023-01-26T16:14:52.546Z,99873.56
2023-01-26T16:16:28.076Z,99873.56
2023-01-26T16:17:59.953Z,99868.44
2023-01-26T16:19:35.649Z,99864.16
2023-01-26T16:21:26.941Z,99870.09
2023-01-26T16:22:58.813Z,99866.69
2023-01-26T16:24:31.738Z,99865.81
2023-01-26T16:26:03.702Z,99860.72
2023-01-26T16:27:38.328Z,99865.81
2023-01-26T16:29:10.237Z,99858.16
2023-01-26T16:30:45.579Z,99859.03
2023-01-26T16:32:29.740Z,99857.31
2023-01-26T16:34:01.761Z,99853.91
2023-01-26T16:35:33.599Z,99846.22
2023-01-26T16:37:05.442Z,99844.50
2023-01-26T16:38:37.277Z,99844.47
2023-01-26T16:41:49.422Z,99846.94
2023-01-26T16:43:24.024Z,99846.09
2023-01-26T16:44:56.217Z,99837.56
2023-01-26T16:46:28.464Z,99835.88
2023-01-26T16:48:00.318Z,99835.84
2023-01-26T16:49:34.235Z,99830.75
2023-01-26T16:51:16.748Z,99841.81
2023-01-26T16:52:48.642Z,99835.84
2023-01-26T16:54:20.484Z,99835.03
2023-01-26T16:55:52.300Z,99838.44
2023-01-26T16:57:24.084Z,99839.28
2023-01-26T16:58:56.067Z,99827.38
2023-01-26T17:00:27.904Z,99835.00
2023-01-26T17:01:59.759Z,99832.50
2023-01-26T17:03:31.671Z,99833.38
2023-01-26T17:05:03.620Z,99823.97
2023-01-26T17:06:35.512Z,99822.25
2023-01-26T17:08:07.786Z,99823.97
2023-01-26T17:09:39.656Z,99823.97
2023-01-26T17:11:13.490Z,99823.13
2023-01-26T17:12:45.322Z,99824.78
2023-01-26T17:14:17.287Z,99830.78
2023-01-26T17:15:49.200Z,99827.34
2023-01-26T17:17:21.001Z,99827.34
2023-01-26T17:18:52.936Z,99822.19
2023-01-26T17:20:24.853Z,99826.44
2023-01-26T17:21:58.087Z,99819.69
2023-01-26T17:23:29.947Z,99820.56
2023-01-26T17:25:01.806Z,99825.66
2023-01-26T17:26:33.753Z,99813.72
2023-01-26T17:28:05.694Z,99814.56
2023-01-26T17:29:37.499Z,99810.34
2023-01-26T17:31:10.315Z,99817.16
2023-01-26T17:32:42.587Z,99805.25
2023-01-26T17:34:14.478Z,99807.78
2023-01-26T17:35:46.345Z,99805.25
2023-01-26T17:37:18.469Z,99795.84
2023-01-26T17:38:50.345Z,99797.56
2023-01-26T17:46:15.203Z,99784.81
2023-01-26T17:47:47.071Z,99785.66
2023-01-26T17:49:21.516Z,99788.25
2023-01-26T17:50:55.418Z,99782.28
2023-01-26T17:52:28.238Z,99781.44
2023-01-26T17:54:00.055Z,99786.53
2023-01-26T17:55:31.878Z,99788.28
2023-01-26T17:57:03.839Z,99786.56
2023-01-26T17:58:36.001Z,99778.06
2023-01-26T18:00:08.511Z,99779.75
2023-01-26T18:01:43.330Z,99775.47
2023-01-26T18:03:17.204Z,99783.16
2023-01-26T18:04:49.213Z,99777.22
2023-01-26T18:06:21.363Z,99772.91
2023-01-26T18:07:53.280Z,99778.00
2023-01-26T18:09:25.480Z,99776.31
2023-01-26T18:10:58.284Z,99768.59
2023-01-26T18:12:30.192Z,99771.16
2023-01-26T18:14:03.091Z,99764.31
2023-01-26T18:15:36.789Z,99760.94
2023-01-26T18:17:08.741Z,99756.69
2023-01-26T18:18:40.598Z,99747.28
2023-01-26T18:20:12.658Z,99747.28
2023-01-26T18:21:44.491Z,99745.53
2023-01-26T18:23:16.742Z,99742.94
2023-01-26T18:24:48.685Z,99741.22
2023-01-26T18:26:21.852Z,99732.75
2023-01-26T18:27:53.656Z,99737.00
2023-01-26T18:29:25.553Z,99731.06
2023-01-26T18:30:58.893Z,99737.06
2023-01-26T18:32:30.790Z,99728.56
2023-01-26T18:34:03.423Z,99725.13
2023-01-26T18:35:35.383Z,99723.41